createdAt,value
2022-12-19T14:23:36.995Z,5.44
2022-12-19T14:28:16.786Z,5.92
2022-12-19T14:29:06.428Z,6.32
2022-12-19T14:31:35.793Z,6.56
2022-12-19T14:34:35.680Z,6.74
2022-12-19T14:36:54.051Z,6.94
2022-12-19T14:39:33.284Z,7.07
2022-12-19T14:43:57.549Z,7.19
2022-12-19T14:54:06.845Z,7.44
2022-12-19T14:54:11.398Z,7.38
2022-12-19T14:54:21.438Z,7.29
2022-12-19T14:57:29.155Z,7.58
2022-12-19T15:00:50.944Z,7.64
2022-12-19T15:03:18.773Z,7.66
2022-12-19T15:05:46.857Z,7.68
2022-12-19T15:08:14.822Z,7.71
2022-12-19T15:11:08.134Z,7.75
2022-12-19T15:14:56.506Z,7.76
2022-12-19T15:16:26.538Z,7.80
2022-12-19T15:18:57.032Z,7.83
2022-12-19T15:21:25.071Z,7.85
2022-12-19T15:23:52.854Z,7.88
2022-12-19T15:26:22.143Z,7.90
2022-12-19T15:28:52.387Z,7.93
2022-12-19T15:31:29.880Z,7.93
2022-12-19T15:36:45.839Z,7.95
2022-12-19T15:39:15.057Z,7.95
2022-12-19T15:41:43.122Z,7.98
2022-12-19T15:44:17.241Z,7.98
2022-12-19T15:46:48.971Z,7.98
2022-12-19T15:49:17.956Z,8.00
2022-12-19T15:51:45.757Z,8.01
2022-12-19T15:57:01.785Z,8.05
2022-12-19T15:59:37.723Z,8.06
2022-12-19T16:02:16.870Z,8.05
2022-12-19T16:04:45.055Z,8.05
2022-12-19T16:07:15.774Z,8.07
2022-12-19T16:09:43.588Z,8.08
2022-12-19T16:12:15.315Z,8.10
2022-12-19T16:14:44.832Z,8.09
2022-12-19T16:17:16.412Z,8.08
2022-12-19T16:19:45.491Z,8.11
2022-12-19T16:22:18.125Z,8.11
2022-12-19T16:24:45.872Z,8.09
2022-12-19T16:27:19.703Z,8.09
2022-12-19T16:29:48.924Z,8.08
2022-12-19T16:32:16.743Z,8.08
2022-12-19T16:34:44.567Z,8.07
2022-12-19T16:37:12.944Z,8.08
2022-12-19T16:39:40.702Z,8.07
2022-12-19T16:42:15.071Z,8.07
2022-12-19T16:44:43.714Z,8.07
2022-12-19T16:47:15.042Z,8.07
2022-12-19T16:49:42.842Z,8.05
2022-12-19T16:52:10.568Z,8.08
2022-12-19T16:54:38.358Z,8.07
2022-12-19T16:57:07.208Z,8.09
2022-12-19T16:59:37.498Z,8.08
2022-12-19T17:02:28.409Z,8.08
2022-12-19T17:04:56.664Z,8.08
2022-12-19T17:07:24.431Z,8.09
2022-12-19T17:09:52.177Z,8.09
2022-12-19T17:13:34.466Z,8.15
2022-12-19T17:16:02.566Z,8.15
2022-12-19T17:18:33.429Z,8.16
2022-12-19T17:21:01.603Z,8.15
2022-12-19T17:23:32.441Z,8.15
2022-12-19T17:26:01.031Z,8.16
2022-12-19T17:28:29.881Z,8.14
2022-12-19T17:31:00.880Z,8.13
2022-12-19T17:33:33.947Z,8.13
2022-12-19T17:36:01.749Z,8.11
2022-12-19T17:38:29.663Z,8.14
2022-12-19T17:40:57.392Z,8.12
2022-12-19T17:43:25.163Z,8.09
2022-12-19T17:45:53.084Z,8.08
2022-12-19T17:48:27.635Z,8.07
2022-12-19T17:50:55.989Z,8.08
2022-12-19T17:53:23.915Z,8.09
2022-12-19T17:55:51.937Z,8.12
2022-12-19T17:58:19.812Z,8.12
2022-12-19T18:00:48.275Z,8.15
2022-12-19T18:03:22.258Z,8.17
2022-12-19T18:05:54.794Z,8.19
2022-12-19T18:08:25.745Z,8.20
2022-12-19T18:10:53.573Z,8.23
2022-12-19T18:13:21.588Z,8.27
2022-12-19T18:15:49.462Z,8.30
2022-12-19T18:18:20.653Z,8.33
2022-12-19T18:20:48.485Z,8.38
2022-12-19T18:23:19.780Z,8.37
2022-12-19T18:25:47.939Z,8.40
2022-12-19T18:28:16.679Z,8.45
2022-12-19T18:30:44.781Z,8.48
2022-12-19T18:33:16.929Z,8.47
2022-12-19T18:35:47.782Z,8.52
2022-12-19T18:38:17.037Z,8.52
2022-12-19T18:40:46.719Z,8.54
2022-12-19T18:43:14.842Z,8.53
2022-12-19T18:45:44.311Z,8.55
2022-12-19T18:48:17.411Z,8.57
2022-12-19T18:50:45.388Z,8.58
2022-12-19T18:53:13.840Z,8.60
2022-12-19T18:55:41.606Z,8.60
2022-12-19T18:58:10.911Z,8.60
2022-12-19T19:00:39.214Z,8.62
2022-12-19T19:03:11.668Z,8.62
2022-12-19T19:05:40.444Z,8.63
2022-12-19T19:08:16.299Z,8.65
2022-12-19T19:10:44.171Z,8.68
2022-12-19T19:13:13.984Z,8.69
2022-12-19T19:15:46.589Z,8.73
2022-12-19T19:18:15.802Z,8.75
2022-12-19T19:20:44.813Z,8.76
2022-12-19T19:23:13.567Z,8.81
2022-12-19T19:25:41.770Z,8.82
2022-12-19T19:28:10.468Z,8.84
2022-12-19T19:30:40.616Z,8.86
2022-12-19T19:33:11.244Z,8.86
2022-12-19T19:35:39.583Z,8.87
2022-12-19T19:38:08.716Z,8.89
2022-12-19T19:40:37.080Z,8.90
2022-12-19T19:43:05.456Z,8.89
2022-12-19T19:45:36.830Z,8.88
2022-12-19T19:48:10.483Z,8.87
2022-12-19T19:50:38.148Z,8.93
2022-12-19T19:53:06.018Z,8.96
2022-12-19T19:55:33.728Z,8.97
2022-12-19T19:58:01.508Z,8.96
2022-12-19T20:00:29.170Z,8.98
2022-12-19T20:02:57.014Z,9.00
2022-12-19T20:05:26.240Z,9.01
2022-12-19T20:07:53.976Z,9.02
2022-12-19T20:10:21.703Z,9.04
2022-12-19T20:12:49.354Z,9.04
2022-12-19T20:15:17.143Z,9.04
2022-12-19T20:17:44.838Z,9.03
2022-12-19T20:20:13.356Z,9.02
2022-12-19T20:22:42.541Z,9.04
2022-12-19T20:25:10.257Z,9.03
2022-12-19T20:27:38.074Z,9.02
2022-12-19T20:30:06.928Z,9.03
2022-12-19T20:32:34.667Z,9.06
2022-12-19T20:35:02.404Z,9.04
2022-12-19T20:37:30.408Z,9.03
2022-12-19T20:39:59.557Z,9.03
2022-12-19T20:42:27.237Z,9.04
2022-12-19T20:44:54.953Z,9.06
2022-12-19T20:47:24.472Z,9.06
2022-12-19T20:49:52.215Z,9.06
2022-12-19T20:52:20.163Z,9.09
2022-12-19T20:54:47.867Z,9.10
2022-12-19T20:57:17.070Z,9.09
2022-12-19T20:59:44.725Z,9.09
2022-12-19T21:02:12.683Z,9.07
2022-12-19T21:04:40.903Z,9.07
2022-12-19T21:07:08.649Z,9.06
2022-12-19T21:09:36.308Z,9.04
2022-12-19T21:12:04.268Z,9.02
2022-12-19T21:14:33.642Z,9.02
2022-12-19T21:17:01.413Z,8.99
2022-12-19T21:19:29.130Z,9.01
2022-12-19T21:21:56.922Z,9.03
2022-12-19T21:24:24.823Z,9.04
2022-12-19T21:26:57.766Z,9.05
2022-12-19T21:29:26.080Z,9.05
2022-12-19T21:31:55.293Z,9.02
2022-12-19T21:34:23.123Z,9.01
2022-12-19T21:36:50.799Z,9.08
2022-12-19T21:39:20.583Z,9.05
2022-12-19T21:41:48.314Z,9.08
2022-12-19T21:44:15.969Z,9.06
2022-12-19T21:46:43.985Z,9.06
2022-12-19T21:49:13.240Z,9.06
2022-12-19T21:51:40.931Z,9.06
2022-12-19T21:54:08.815Z,9.05
2022-12-19T21:56:38.718Z,9.05
2022-12-19T21:59:07.762Z,9.05
2022-12-19T22:01:35.703Z,9.05
2022-12-19T22:04:06.341Z,9.08
2022-12-19T22:06:37.217Z,9.09
2022-12-19T22:09:07.179Z,9.10
2022-12-19T22:11:36.469Z,9.09
2022-12-19T22:14:05.973Z,9.09
2022-12-19T22:16:34.011Z,9.09
2022-12-19T22:19:01.875Z,9.07
2022-12-19T22:21:29.725Z,9.03
2022-12-19T22:23:59.359Z,9.07
2022-12-19T22:26:29.411Z,9.08
2022-12-19T22:28:57.690Z,9.06
2022-12-19T22:31:26.966Z,9.08
2022-12-19T22:33:56.317Z,9.10
2022-12-19T22:36:28.458Z,9.13
2022-12-19T22:38:57.673Z,9.11
2022-12-19T22:41:27.423Z,9.13
2022-12-19T22:43:55.893Z,9.12
2022-12-19T22:46:26.146Z,9.14
2022-12-19T22:48:55.874Z,9.17
2022-12-19T22:51:23.905Z,9.18
2022-12-19T22:53:51.936Z,9.23
2022-12-19T22:56:21.804Z,9.26
2022-12-19T22:58:52.784Z,9.26
2022-12-19T23:01:22.334Z,9.29
2022-12-19T23:03:51.710Z,9.35
2022-12-19T23:06:20.162Z,9.38
2022-12-19T23:08:48.028Z,9.41
2022-12-19T23:11:18.068Z,9.44
2022-12-19T23:13:48.240Z,9.43
2022-12-19T23:16:17.667Z,9.47
2022-12-19T23:18:45.605Z,9.47
2022-12-19T23:21:15.515Z,9.47
2022-12-19T23:23:44.201Z,9.47
2022-12-19T23:26:16.027Z,9.47
2022-12-19T23:28:44.287Z,9.48
2022-12-19T23:31:13.955Z,9.47
2022-12-19T23:33:43.058Z,9.47
2022-12-19T23:36:11.302Z,9.47
2022-12-19T23:38:39.070Z,9.48
2022-12-19T23:41:09.544Z,9.47
2022-12-19T23:43:37.766Z,9.49
2022-12-19T23:46:06.791Z,9.48
2022-12-19T23:48:34.616Z,9.47
2022-12-19T23:51:05.777Z,9.48
2022-12-19T23:53:34.319Z,9.47
2022-12-19T23:56:02.868Z,9.47
2022-12-19T23:58:30.690Z,9.44
